sensor_id;sensor_type;location;lat;lon;timestamp;temperature;humidity
49549;DHT22;35450;44.518;7.466;2023-07-13T00:01:28;23.90;99.90
49549;DHT22;35450;44.518;7.466;2023-07-13T00:04:33;23.90;99.90
49549;DHT22;35450;44.518;7.466;2023-07-13T00:07:36;23.80;99.90
49549;DHT22;35450;44.518;7.466;2023-07-13T00:10:41;23.60;99.90
49549;DHT22;35450;44.518;7.466;2023-07-13T00:13:46;23.60;99.90
49549;DHT22;35450;44.518;7.466;2023-07-13T00:16:50;23.60;99.90
49549;DHT22;35450;44.518;7.466;2023-07-13T00:19:56;23.60;99.90
49549;DHT22;35450;44.518;7.466;2023-07-13T00:23:00;23.40;99.90
49549;DHT22;35450;44.518;7.466;2023-07-13T00:26:05;23.30;99.90
49549;DHT22;35450;44.518;7.466;2023-07-13T00:29:10;23.10;99.90
49549;DHT22;35450;44.518;7.466;2023-07-13T00:32:14;23.10;99.90
49549;DHT22;35450;44.518;7.466;2023-07-13T00:35:18;23.20;99.90
49549;DHT22;35450;44.518;7.466;2023-07-13T00:38:23;23.30;99.90
49549;DHT22;35450;44.518;7.466;2023-07-13T00:41:27;23.30;99.90
49549;DHT22;35450;44.518;7.466;2023-07-13T00:44:31;23.30;99.90
49549;DHT22;35450;44.518;7.466;2023-07-13T00:47:35;23.50;99.90
49549;DHT22;35450;44.518;7.466;2023-07-13T00:50:40;23.50;99.90
49549;DHT22;35450;44.518;7.466;2023-07-13T00:53:44;23.50;99.90
49549;DHT22;35450;44.518;7.466;2023-07-13T00:56:51;23.40;99.90
49549;DHT22;35450;44.518;7.466;2023-07-13T01:00:00;23.30;99.90
49549;DHT22;35450;44.518;7.466;2023-07-13T01:03:10;23.50;99.90
49549;DHT22;35450;44.518;7.466;2023-07-13T01:06:14;23.80;99.90
49549;DHT22;35450;44.518;7.466;2023-07-13T01:09:19;23.70;99.90
49549;DHT22;35450;44.518;7.466;2023-07-13T01:12:24;23.90;99.90
49549;DHT22;35450;44.518;7.466;2023-07-13T01:15:42;24.10;99.90
49549;DHT22;35450;44.518;7.466;2023-07-13T01:18:48;24.20;99.90
49549;DHT22;35450;44.518;7.466;2023-07-13T01:21:53;23.80;99.90
49549;DHT22;35450;44.518;7.466;2023-07-13T01:24:57;24.00;99.90
49549;DHT22;35450;44.518;7.466;2023-07-13T01:28:03;24.10;99.90
49549;DHT22;35450;44.518;7.466;2023-07-13T01:31:10;24.10;99.90
49549;DHT22;35450;44.518;7.466;2023-07-13T01:34:14;24.20;99.90
49549;DHT22;35450;44.518;7.466;2023-07-13T01:37:18;23.90;99.90
49549;DHT22;35450;44.518;7.466;2023-07-13T01:40:22;24.00;99.90
49549;DHT22;35450;44.518;7.466;2023-07-13T01:43:26;24.10;99.90
49549;DHT22;35450;44.518;7.466;2023-07-13T01:46:30;24.20;99.90
49549;DHT22;35450;44.518;7.466;2023-07-13T01:49:34;24.30;99.90
49549;DHT22;35450;44.518;7.466;2023-07-13T01:52:40;24.20;99.90
49549;DHT22;35450;44.518;7.466;2023-07-13T01:55:44;24.20;99.90
49549;DHT22;35450;44.518;7.466;2023-07-13T01:58:48;24.20;99.90
49549;DHT22;35450;44.518;7.466;2023-07-13T02:01:51;24.40;99.90
49549;DHT22;35450;44.518;7.466;2023-07-13T02:04:55;24.40;99.90
49549;DHT22;35450;44.518;7.466;2023-07-13T02:08:00;24.40;99.90
49549;DHT22;35450;44.518;7.466;2023-07-13T02:11:04;24.40;99.90
49549;DHT22;35450;44.518;7.466;2023-07-13T02:14:08;24.40;99.90
49549;DHT22;35450;44.518;7.466;2023-07-13T02:17:12;24.40;99.90
49549;DHT22;35450;44.518;7.466;2023-07-13T02:20:17;24.40;99.90
49549;DHT22;35450;44.518;7.466;2023-07-13T02:23:21;24.30;99.90
49549;DHT22;35450;44.518;7.466;2023-07-13T02:26:25;24.30;99.90
49549;DHT22;35450;44.518;7.466;2023-07-13T02:29:29;24.20;99.90
49549;DHT22;35450;44.518;7.466;2023-07-13T02:32:33;24.10;99.90
49549;DHT22;35450;44.518;7.466;2023-07-13T02:35:38;24.20;99.90
49549;DHT22;35450;44.518;7.466;2023-07-13T02:38:42;23.90;99.90
49549;DHT22;35450;44.518;7.466;2023-07-13T02:41:46;24.00;99.90
49549;DHT22;35450;44.518;7.466;2023-07-13T02:44:51;24.10;99.90
49549;DHT22;35450;44.518;7.466;2023-07-13T02:47:55;23.90;99.90
49549;DHT22;35450;44.518;7.466;2023-07-13T02:50:59;23.80;99.90
49549;DHT22;35450;44.518;7.466;2023-07-13T02:54:04;23.70;99.90
49549;DHT22;35450;44.518;7.466;2023-07-13T02:57:08;23.70;99.90
49549;DHT22;35450;44.518;7.466;2023-07-13T03:00:12;23.90;99.90
49549;DHT22;35450;44.518;7.466;2023-07-13T03:03:17;23.90;99.90
49549;DHT22;35450;44.518;7.466;2023-07-13T03:06:21;23.70;99.90
49549;DHT22;35450;44.518;7.466;2023-07-13T03:09:32;23.90;99.90
49549;DHT22;35450;44.518;7.466;2023-07-13T03:12:38;24.10;99.90
49549;DHT22;35450;44.518;7.466;2023-07-13T03:15:48;24.20;99.90
49549;DHT22;35450;44.518;7.466;2023-07-13T03:18:52;24.20;99.90
49549;DHT22;35450;44.518;7.466;2023-07-13T03:21:56;24.20;99.90
49549;DHT22;35450;44.518;7.466;2023-07-13T03:25:01;23.80;99.90
49549;DHT22;35450;44.518;7.466;2023-07-13T03:28:05;23.70;99.90
49549;DHT22;35450;44.518;7.466;2023-07-13T03:31:14;23.80;99.90
49549;DHT22;35450;44.518;7.466;2023-07-13T03:34:18;23.90;99.90
49549;DHT22;35450;44.518;7.466;2023-07-13T03:37:22;23.90;99.90
49549;DHT22;35450;44.518;7.466;2023-07-13T03:45:24;23.50;99.90
49549;DHT22;35450;44.518;7.466;2023-07-13T03:48:29;23.10;99.90
49549;DHT22;35450;44.518;7.466;2023-07-13T03:51:34;23.00;99.90
49549;DHT22;35450;44.518;7.466;2023-07-13T03:54:42;23.00;99.90
49549;DHT22;35450;44.518;7.466;2023-07-13T03:57:45;22.90;99.90
49549;DHT22;35450;44.518;7.466;2023-07-13T04:00:50;22.90;99.90
49549;DHT22;35450;44.518;7.466;2023-07-13T04:03:55;22.70;99.90
49549;DHT22;35450;44.518;7.466;2023-07-13T04:07:01;22.60;99.90
49549;DHT22;35450;44.518;7.466;2023-07-13T04:10:05;22.60;99.90
49549;DHT22;35450;44.518;7.466;2023-07-13T04:13:09;22.70;99.90
49549;DHT22;35450;44.518;7.466;2023-07-13T04:16:16;23.00;99.90
49549;DHT22;35450;44.518;7.466;2023-07-13T04:19:21;23.00;99.90
49549;DHT22;35450;44.518;7.466;2023-07-13T04:22:25;22.60;99.90
49549;DHT22;35450;44.518;7.466;2023-07-13T04:25:29;22.40;99.90
49549;DHT22;35450;44.518;7.466;2023-07-13T04:28:33;22.10;99.90
49549;DHT22;35450;44.518;7.466;2023-07-13T04:31:37;22.00;99.90
49549;DHT22;35450;44.518;7.466;2023-07-13T04:34:41;22.00;99.90
49549;DHT22;35450;44.518;7.466;2023-07-13T04:37:49;22.00;99.90
49549;DHT22;35450;44.518;7.466;2023-07-13T04:41:05;22.30;99.90
49549;DHT22;35450;44.518;7.466;2023-07-13T04:44:10;22.40;99.90
49549;DHT22;35450;44.518;7.466;2023-07-13T04:47:14;22.60;99.90
49549;DHT22;35450;44.518;7.466;2023-07-13T04:50:18;22.60;99.90
49549;DHT22;35450;44.518;7.466;2023-07-13T04:53:28;22.40;99.90
49549;DHT22;35450;44.518;7.466;2023-07-13T04:56:32;22.20;99.90
49549;DHT22;35450;44.518;7.466;2023-07-13T04:59:37;22.20;99.90
49549;DHT22;35450;44.518;7.466;2023-07-13T05:02:44;22.20;99.90
49549;DHT22;35450;44.518;7.466;2023-07-13T05:05:56;22.30;99.90
49549;DHT22;35450;44.518;7.466;2023-07-13T05:09:00;22.30;99.90
49549;DHT22;35450;44.518;7.466;2023-07-13T05:12:04;22.30;99.90
49549;DHT22;35450;44.518;7.466;2023-07-13T05:15:09;22.30;99.90
49549;DHT22;35450;44.518;7.466;2023-07-13T05:18:13;22.30;99.90
49549;DHT22;35450;44.518;7.466;2023-07-13T05:21:17;22.50;99.90
49549;DHT22;35450;44.518;7.466;2023-07-13T05:24:21;22.40;99.90
49549;DHT22;35450;44.518;7.466;2023-07-13T05:27:25;22.80;99.90
49549;DHT22;35450;44.518;7.466;2023-07-13T05:30:29;22.80;99.90
49549;DHT22;35450;44.518;7.466;2023-07-13T05:33:34;22.90;99.90
49549;DHT22;35450;44.518;7.466;2023-07-13T05:36:37;23.20;99.90
49549;DHT22;35450;44.518;7.466;2023-07-13T05:39:41;23.40;99.90
49549;DHT22;35450;44.518;7.466;2023-07-13T05:42:45;23.50;99.90
49549;DHT22;35450;44.518;7.466;2023-07-13T05:45:50;23.60;99.90
49549;DHT22;35450;44.518;7.466;2023-07-13T05:48:54;23.70;99.90
49549;DHT22;35450;44.518;7.466;2023-07-13T05:51:58;23.80;99.90
49549;DHT22;35450;44.518;7.466;2023-07-13T05:55:03;23.70;99.90
49549;DHT22;35450;44.518;7.466;2023-07-13T05:58:07;23.60;99.90
49549;DHT22;35450;44.518;7.466;2023-07-13T06:01:13;23.60;99.90
49549;DHT22;35450;44.518;7.466;2023-07-13T06:04:18;23.60;99.90
49549;DHT22;35450;44.518;7.466;2023-07-13T06:07:23;23.60;99.90
49549;DHT22;35450;44.518;7.466;2023-07-13T06:10:27;23.70;99.90
49549;DHT22;35450;44.518;7.466;2023-07-13T06:13:31;23.80;99.90
49549;DHT22;35450;44.518;7.466;2023-07-13T06:16:35;23.90;99.90
49549;DHT22;35450;44.518;7.466;2023-07-13T06:19:39;23.80;99.90
49549;DHT22;35450;44.518;7.466;2023-07-13T06:22:43;23.80;99.90
49549;DHT22;35450;44.518;7.466;2023-07-13T06:25:47;24.00;99.90
49549;DHT22;35450;44.518;7.466;2023-07-13T06:28:51;24.10;99.90
49549;DHT22;35450;44.518;7.466;2023-07-13T06:31:56;24.10;99.90
49549;DHT22;35450;44.518;7.466;2023-07-13T06:35:00;24.10;99.90
49549;DHT22;35450;44.518;7.466;2023-07-13T06:38:04;24.10;99.90
49549;DHT22;35450;44.518;7.466;2023-07-13T06:41:09;24.20;99.90
49549;DHT22;35450;44.518;7.466;2023-07-13T06:44:13;24.20;99.90
49549;DHT22;35450;44.518;7.466;2023-07-13T06:47:17;24.20;99.90
49549;DHT22;35450;44.518;7.466;2023-07-13T06:50:21;24.10;99.90
49549;DHT22;35450;44.518;7.466;2023-07-13T06:53:25;24.00;99.90
49549;DHT22;35450;44.518;7.466;2023-07-13T06:56:29;24.10;99.90
49549;DHT22;35450;44.518;7.466;2023-07-13T06:59:33;24.20;99.90
49549;DHT22;35450;44.518;7.466;2023-07-13T07:02:37;24.30;99.90
49549;DHT22;35450;44.518;7.466;2023-07-13T07:05:41;24.30;99.90
49549;DHT22;35450;44.518;7.466;2023-07-13T07:08:45;24.20;99.90
49549;DHT22;35450;44.518;7.466;2023-07-13T07:11:50;24.40;99.90
49549;DHT22;35450;44.518;7.466;2023-07-13T07:14:54;24.40;99.90
49549;DHT22;35450;44.518;7.466;2023-07-13T07:17:58;24.40;99.90
49549;DHT22;35450;44.518;7.466;2023-07-13T07:21:03;24.50;99.90
49549;DHT22;35450;44.518;7.466;2023-07-13T07:24:08;24.50;99.90
49549;DHT22;35450;44.518;7.466;2023-07-13T07:27:12;24.40;99.90
49549;DHT22;35450;44.518;7.466;2023-07-13T07:30:16;24.50;99.90
49549;DHT22;35450;44.518;7.466;2023-07-13T07:33:20;24.50;99.90
49549;DHT22;35450;44.518;7.466;2023-07-13T07:36:24;24.60;99.90
49549;DHT22;35450;44.518;7.466;2023-07-13T07:39:29;24.60;99.90
49549;DHT22;35450;44.518;7.466;2023-07-13T07:42:33;24.60;99.90
49549;DHT22;35450;44.518;7.466;2023-07-13T07:45:39;24.70;99.90
49549;DHT22;35450;44.518;7.466;2023-07-13T07:48:43;24.80;99.90
49549;DHT22;35450;44.518;7.466;2023-07-13T07:51:47;24.90;99.70
49549;DHT22;35450;44.518;7.466;2023-07-13T07:54:51;24.90;99.60
49549;DHT22;35450;44.518;7.466;2023-07-13T07:57:56;25.00;99.50
49549;DHT22;35450;44.518;7.466;2023-07-13T08:01:05;25.00;99.20
49549;DHT22;35450;44.518;7.466;2023-07-13T08:04:10;24.80;99.50
49549;DHT22;35450;44.518;7.466;2023-07-13T08:07:13;24.90;99.50
49549;DHT22;35450;44.518;7.466;2023-07-13T08:10:18;24.90;99.60
49549;DHT22;35450;44.518;7.466;2023-07-13T08:13:22;24.90;99.60
49549;DHT22;35450;44.518;7.466;2023-07-13T08:16:26;24.90;99.70
49549;DHT22;35450;44.518;7.466;2023-07-13T08:19:30;25.00;99.70
49549;DHT22;35450;44.518;7.466;2023-07-13T08:22:34;25.10;99.70
49549;DHT22;35450;44.518;7.466;2023-07-13T08:25:39;25.10;99.50
49549;DHT22;35450;44.518;7.466;2023-07-13T08:28:43;25.10;99.40
49549;DHT22;35450;44.518;7.466;2023-07-13T08:31:48;25.10;99.30
49549;DHT22;35450;44.518;7.466;2023-07-13T08:35:00;25.20;99.60
49549;DHT22;35450;44.518;7.466;2023-07-13T08:38:05;25.20;98.90
49549;DHT22;35450;44.518;7.466;2023-07-13T08:41:14;25.00;99.10
49549;DHT22;35450;44.518;7.466;2023-07-13T08:44:31;25.20;99.40
49549;DHT22;35450;44.518;7.466;2023-07-13T08:47:50;25.30;99.20
49549;DHT22;35450;44.518;7.466;2023-07-13T08:54:05;25.40;99.10
49549;DHT22;35450;44.518;7.466;2023-07-13T08:57:13;25.40;98.80
49549;DHT22;35450;44.518;7.466;2023-07-13T09:00:17;25.30;98.90
49549;DHT22;35450;44.518;7.466;2023-07-13T09:03:23;25.30;99.00
49549;DHT22;35450;44.518;7.466;2023-07-13T09:06:59;25.30;99.00
49549;DHT22;35450;44.518;7.466;2023-07-13T09:10:20;25.20;99.20
49549;DHT22;35450;44.518;7.466;2023-07-13T09:13:38;25.20;99.30
49549;DHT22;35450;44.518;7.466;2023-07-13T09:16:46;25.20;99.40
49549;DHT22;35450;44.518;7.466;2023-07-13T09:20:04;25.30;99.40
49549;DHT22;35450;44.518;7.466;2023-07-13T09:23:16;25.30;99.20
49549;DHT22;35450;44.518;7.466;2023-07-13T09:26:23;25.50;99.20
49549;DHT22;35450;44.518;7.466;2023-07-13T09:29:33;25.60;99.50
49549;DHT22;35450;44.518;7.466;2023-07-13T09:32:43;25.60;98.90
49549;DHT22;35450;44.518;7.466;2023-07-13T09:35:49;25.70;98.90
49549;DHT22;35450;44.518;7.466;2023-07-13T09:45:27;25.90;98.70
49549;DHT22;35450;44.518;7.466;2023-07-13T09:48:35;25.80;98.80
49549;DHT22;35450;44.518;7.466;2023-07-13T09:51:41;25.60;98.70
49549;DHT22;35450;44.518;7.466;2023-07-13T09:54:48;25.90;98.80
49549;DHT22;35450;44.518;7.466;2023-07-13T09:57:52;25.90;98.60
49549;DHT22;35450;44.518;7.466;2023-07-13T10:01:02;25.70;98.80
49549;DHT22;35450;44.518;7.466;2023-07-13T10:04:12;25.80;98.80
49549;DHT22;35450;44.518;7.466;2023-07-13T10:07:17;25.80;98.80
49549;DHT22;35450;44.518;7.466;2023-07-13T10:10:23;25.90;98.90
49549;DHT22;35450;44.518;7.466;2023-07-13T10:13:34;25.90;98.90
49549;DHT22;35450;44.518;7.466;2023-07-13T10:16:42;25.80;98.90
49549;DHT22;35450;44.518;7.466;2023-07-13T10:19:48;25.80;98.70
49549;DHT22;35450;44.518;7.466;2023-07-13T10:23:03;25.70;98.90
49549;DHT22;35450;44.518;7.466;2023-07-13T10:26:15;25.60;99.10
49549;DHT22;35450;44.518;7.466;2023-07-13T10:29:23;25.70;99.10
49549;DHT22;35450;44.518;7.466;2023-07-13T10:32:28;25.90;98.80
49549;DHT22;35450;44.518;7.466;2023-07-13T10:35:33;26.00;98.40
49549;DHT22;35450;44.518;7.466;2023-07-13T10:38:38;26.10;98.80
49549;DHT22;35450;44.518;7.466;2023-07-13T10:41:44;26.30;98.60
49549;DHT22;35450;44.518;7.466;2023-07-13T10:44:50;26.30;98.50
49549;DHT22;35450;44.518;7.466;2023-07-13T10:47:54;26.30;98.40
49549;DHT22;35450;44.518;7.466;2023-07-13T10:50:59;26.10;98.50
49549;DHT22;35450;44.518;7.466;2023-07-13T10:57:42;26.30;99.10
49549;DHT22;35450;44.518;7.466;2023-07-13T11:01:38;26.40;98.30
49549;DHT22;35450;44.518;7.466;2023-07-13T11:04:16;26.50;98.10
49549;DHT22;35450;44.518;7.466;2023-07-13T11:07:27;26.70;98.00
49549;DHT22;35450;44.518;7.466;2023-07-13T11:10:52;26.70;97.60
49549;DHT22;35450;44.518;7.466;2023-07-13T11:13:59;26.80;97.50
49549;DHT22;35450;44.518;7.466;2023-07-13T11:20:37;27.00;97.20
49549;DHT22;35450;44.518;7.466;2023-07-13T11:24:02;27.10;96.90
49549;DHT22;35450;44.518;7.466;2023-07-13T11:27:24;27.10;96.90
49549;DHT22;35450;44.518;7.466;2023-07-13T11:30:36;27.20;96.60
49549;DHT22;35450;44.518;7.466;2023-07-13T11:36:45;26.90;97.00
49549;DHT22;35450;44.518;7.466;2023-07-13T11:39:51;26.90;97.40
49549;DHT22;35450;44.518;7.466;2023-07-13T11:43:01;26.90;97.30
49549;DHT22;35450;44.518;7.466;2023-07-13T11:46:22;27.00;96.80
49549;DHT22;35450;44.518;7.466;2023-07-13T11:49:30;27.10;96.90
49549;DHT22;35450;44.518;7.466;2023-07-13T11:52:36;27.00;96.70
49549;DHT22;35450;44.518;7.466;2023-07-13T11:55:41;27.20;96.60
49549;DHT22;35450;44.518;7.466;2023-07-13T11:58:56;27.30;96.40
49549;DHT22;35450;44.518;7.466;2023-07-13T12:02:02;27.30;96.40
49549;DHT22;35450;44.518;7.466;2023-07-13T12:05:11;27.20;95.90
49549;DHT22;35450;44.518;7.466;2023-07-13T12:08:17;27.00;96.60
49549;DHT22;35450;44.518;7.466;2023-07-13T12:11:21;27.10;96.80
49549;DHT22;35450;44.518;7.466;2023-07-13T12:14:26;27.20;96.50
49549;DHT22;35450;44.518;7.466;2023-07-13T12:17:30;27.40;96.30
49549;DHT22;35450;44.518;7.466;2023-07-13T12:20:38;27.40;96.00
49549;DHT22;35450;44.518;7.466;2023-07-13T12:23:44;27.60;95.90
49549;DHT22;35450;44.518;7.466;2023-07-13T12:26:52;27.60;95.60
49549;DHT22;35450;44.518;7.466;2023-07-13T12:30:00;27.60;95.20
49549;DHT22;35450;44.518;7.466;2023-07-13T12:33:11;27.60;96.00
49549;DHT22;35450;44.518;7.466;2023-07-13T12:36:16;27.70;96.60
49549;DHT22;35450;44.518;7.466;2023-07-13T12:39:35;27.50;96.20
49549;DHT22;35450;44.518;7.466;2023-07-13T12:42:40;27.30;96.40
49549;DHT22;35450;44.518;7.466;2023-07-13T12:46:14;27.20;96.30
49549;DHT22;35450;44.518;7.466;2023-07-13T12:49:24;27.20;96.40
49549;DHT22;35450;44.518;7.466;2023-07-13T12:52:33;27.20;96.10
49549;DHT22;35450;44.518;7.466;2023-07-13T12:55:51;27.30;95.90
49549;DHT22;35450;44.518;7.466;2023-07-13T12:59:02;27.40;96.40
49549;DHT22;35450;44.518;7.466;2023-07-13T13:02:37;27.60;96.10
49549;DHT22;35450;44.518;7.466;2023-07-13T13:05:41;27.80;95.40
49549;DHT22;35450;44.518;7.466;2023-07-13T13:08:51;27.80;94.90
49549;DHT22;35450;44.518;7.466;2023-07-13T13:11:55;27.80;94.50
49549;DHT22;35450;44.518;7.466;2023-07-13T13:14:59;27.80;95.00
49549;DHT22;35450;44.518;7.466;2023-07-13T13:18:08;27.90;95.20
49549;DHT22;35450;44.518;7.466;2023-07-13T13:21:12;27.90;94.90
49549;DHT22;35450;44.518;7.466;2023-07-13T13:24:22;27.90;94.90
49549;DHT22;35450;44.518;7.466;2023-07-13T13:27:27;28.00;95.00
49549;DHT22;35450;44.518;7.466;2023-07-13T13:30:32;28.10;94.60
49549;DHT22;35450;44.518;7.466;2023-07-13T13:33:36;28.00;94.00
49549;DHT22;35450;44.518;7.466;2023-07-13T13:36:42;27.90;93.90
49549;DHT22;35450;44.518;7.466;2023-07-13T13:39:47;28.10;94.30
49549;DHT22;35450;44.518;7.466;2023-07-13T13:42:51;28.30;93.80
49549;DHT22;35450;44.518;7.466;2023-07-13T13:45:58;28.30;93.50
49549;DHT22;35450;44.518;7.466;2023-07-13T13:49:03;28.30;94.00
49549;DHT22;35450;44.518;7.466;2023-07-13T13:52:09;28.40;93.50
49549;DHT22;35450;44.518;7.466;2023-07-13T13:55:16;28.50;93.80
49549;DHT22;35450;44.518;7.466;2023-07-13T13:58:21;28.50;93.20
49549;DHT22;35450;44.518;7.466;2023-07-13T14:01:31;28.50;93.30
49549;DHT22;35450;44.518;7.466;2023-07-13T14:04:35;28.50;93.10
49549;DHT22;35450;44.518;7.466;2023-07-13T14:07:39;28.60;92.90
49549;DHT22;35450;44.518;7.466;2023-07-13T14:10:45;28.60;93.00
49549;DHT22;35450;44.518;7.466;2023-07-13T14:13:56;28.60;93.20
49549;DHT22;35450;44.518;7.466;2023-07-13T14:17:01;28.60;93.20
49549;DHT22;35450;44.518;7.466;2023-07-13T14:20:11;28.70;93.30
49549;DHT22;35450;44.518;7.466;2023-07-13T14:23:16;28.60;93.00
49549;DHT22;35450;44.518;7.466;2023-07-13T14:26:26;28.60;93.50
49549;DHT22;35450;44.518;7.466;2023-07-13T14:29:31;28.60;93.80
49549;DHT22;35450;44.518;7.466;2023-07-13T14:32:36;28.70;93.50
49549;DHT22;35450;44.518;7.466;2023-07-13T14:35:41;28.70;93.20
49549;DHT22;35450;44.518;7.466;2023-07-13T14:38:46;28.70;93.20
49549;DHT22;35450;44.518;7.466;2023-07-13T14:41:51;28.80;92.80
49549;DHT22;35450;44.518;7.466;2023-07-13T14:44:55;28.90;93.20
49549;DHT22;35450;44.518;7.466;2023-07-13T14:47:59;28.90;93.20
49549;DHT22;35450;44.518;7.466;2023-07-13T14:51:03;29.00;93.20
49549;DHT22;35450;44.518;7.466;2023-07-13T14:54:08;29.00;93.00
49549;DHT22;35450;44.518;7.466;2023-07-13T14:57:15;29.00;92.70
49549;DHT22;35450;44.518;7.466;2023-07-13T15:00:21;29.20;92.40
49549;DHT22;35450;44.518;7.466;2023-07-13T15:03:25;29.30;92.40
49549;DHT22;35450;44.518;7.466;2023-07-13T15:06:29;29.40;92.30
49549;DHT22;35450;44.518;7.466;2023-07-13T15:09:34;29.50;92.10
49549;DHT22;35450;44.518;7.466;2023-07-13T15:12:38;29.90;91.30
49549;DHT22;35450;44.518;7.466;2023-07-13T15:15:45;30.80;91.00
49549;DHT22;35450;44.518;7.466;2023-07-13T15:18:50;32.10;89.50
49549;DHT22;35450;44.518;7.466;2023-07-13T15:21:56;33.00;86.70
49549;DHT22;35450;44.518;7.466;2023-07-13T15:25:03;34.00;85.10
49549;DHT22;35450;44.518;7.466;2023-07-13T15:28:09;34.70;82.40
49549;DHT22;35450;44.518;7.466;2023-07-13T15:31:18;35.30;80.00
49549;DHT22;35450;44.518;7.466;2023-07-13T15:34:25;34.60;81.00
49549;DHT22;35450;44.518;7.466;2023-07-13T15:37:30;34.10;82.20
49549;DHT22;35450;44.518;7.466;2023-07-13T15:40:34;34.30;81.90
49549;DHT22;35450;44.518;7.466;2023-07-13T15:43:38;34.90;79.90
49549;DHT22;35450;44.518;7.466;2023-07-13T15:46:42;34.50;80.50
49549;DHT22;35450;44.518;7.466;2023-07-13T15:49:46;34.00;80.90
49549;DHT22;35450;44.518;7.466;2023-07-13T15:52:52;33.50;81.40
49549;DHT22;35450;44.518;7.466;2023-07-13T15:55:57;32.80;83.50
49549;DHT22;35450;44.518;7.466;2023-07-13T15:59:01;32.40;84.30
49549;DHT22;35450;44.518;7.466;2023-07-13T16:02:18;32.10;85.10
49549;DHT22;35450;44.518;7.466;2023-07-13T16:05:23;31.90;86.60
49549;DHT22;35450;44.518;7.466;2023-07-13T16:08:31;31.90;87.20
49549;DHT22;35450;44.518;7.466;2023-07-13T16:11:37;31.70;87.30
49549;DHT22;35450;44.518;7.466;2023-07-13T16:14:42;31.50;88.40
49549;DHT22;35450;44.518;7.466;2023-07-13T16:17:47;31.60;88.00
49549;DHT22;35450;44.518;7.466;2023-07-13T16:20:51;31.70;86.60
49549;DHT22;35450;44.518;7.466;2023-07-13T16:23:58;31.70;87.60
49549;DHT22;35450;44.518;7.466;2023-07-13T16:27:03;31.60;87.90
49549;DHT22;35450;44.518;7.466;2023-07-13T16:33:25;31.50;87.30
49549;DHT22;35450;44.518;7.466;2023-07-13T16:36:29;31.20;87.50
49549;DHT22;35450;44.518;7.466;2023-07-13T16:39:34;31.10;87.90
49549;DHT22;35450;44.518;7.466;2023-07-13T16:42:38;30.90;88.40
49549;DHT22;35450;44.518;7.466;2023-07-13T16:45:42;30.60;89.50
49549;DHT22;35450;44.518;7.466;2023-07-13T16:48:48;30.60;89.50
49549;DHT22;35450;44.518;7.466;2023-07-13T16:51:52;30.20;90.40
49549;DHT22;35450;44.518;7.466;2023-07-13T16:54:56;30.10;91.10
49549;DHT22;35450;44.518;7.466;2023-07-13T16:58:01;30.00;90.80
49549;DHT22;35450;44.518;7.466;2023-07-13T17:01:07;30.00;91.10
49549;DHT22;35450;44.518;7.466;2023-07-13T17:04:12;30.00;91.40
49549;DHT22;35450;44.518;7.466;2023-07-13T17:07:17;30.10;91.40
49549;DHT22;35450;44.518;7.466;2023-07-13T17:10:22;30.10;91.10
49549;DHT22;35450;44.518;7.466;2023-07-13T17:13:28;30.20;91.00
49549;DHT22;35450;44.518;7.466;2023-07-13T17:16:33;30.30;91.20
49549;DHT22;35450;44.518;7.466;2023-07-13T17:19:38;30.00;91.70
49549;DHT22;35450;44.518;7.466;2023-07-13T17:22:43;29.90;91.60
49549;DHT22;35450;44.518;7.466;2023-07-13T17:25:49;29.90;91.90
49549;DHT22;35450;44.518;7.466;2023-07-13T17:28:55;29.80;92.20
49549;DHT22;35450;44.518;7.466;2023-07-13T17:31:59;29.70;92.50
49549;DHT22;35450;44.518;7.466;2023-07-13T17:35:19;29.60;92.70
49549;DHT22;35450;44.518;7.466;2023-07-13T17:38:36;29.50;93.20
49549;DHT22;35450;44.518;7.466;2023-07-13T17:41:44;29.50;93.20
49549;DHT22;35450;44.518;7.466;2023-07-13T17:44:48;29.50;93.40
49549;DHT22;35450;44.518;7.466;2023-07-13T17:47:53;29.30;93.30
49549;DHT22;35450;44.518;7.466;2023-07-13T17:50:58;29.10;93.50
49549;DHT22;35450;44.518;7.466;2023-07-13T17:54:09;29.00;94.10
49549;DHT22;35450;44.518;7.466;2023-07-13T17:57:16;28.90;94.30
49549;DHT22;35450;44.518;7.466;2023-07-13T18:00:21;28.70;94.60
49549;DHT22;35450;44.518;7.466;2023-07-13T18:03:31;28.80;94.70
49549;DHT22;35450;44.518;7.466;2023-07-13T18:06:40;28.80;94.70
49549;DHT22;35450;44.518;7.466;2023-07-13T18:09:46;28.70;94.80
49549;DHT22;35450;44.518;7.466;2023-07-13T18:12:53;28.70;95.10
49549;DHT22;35450;44.518;7.466;2023-07-13T18:15:57;28.50;94.80
49549;DHT22;35450;44.518;7.466;2023-07-13T18:19:03;28.40;94.80
49549;DHT22;35450;44.518;7.466;2023-07-13T18:22:14;28.40;95.00
49549;DHT22;35450;44.518;7.466;2023-07-13T18:25:20;28.40;94.90
49549;DHT22;35450;44.518;7.466;2023-07-13T18:28:25;28.30;95.10
49549;DHT22;35450;44.518;7.466;2023-07-13T18:31:33;28.30;95.10
49549;DHT22;35450;44.518;7.466;2023-07-13T18:34:40;28.20;95.20
49549;DHT22;35450;44.518;7.466;2023-07-13T18:37:46;28.20;95.10
49549;DHT22;35450;44.518;7.466;2023-07-13T18:40:50;28.10;95.40
49549;DHT22;35450;44.518;7.466;2023-07-13T18:43:54;28.10;95.60
49549;DHT22;35450;44.518;7.466;2023-07-13T18:46:58;28.00;95.70
49549;DHT22;35450;44.518;7.466;2023-07-13T18:50:11;28.00;95.70
49549;DHT22;35450;44.518;7.466;2023-07-13T18:53:17;28.00;95.60
49549;DHT22;35450;44.518;7.466;2023-07-13T18:56:21;27.90;95.70
49549;DHT22;35450;44.518;7.466;2023-07-13T18:59:25;27.90;95.90
49549;DHT22;35450;44.518;7.466;2023-07-13T19:02:30;27.70;95.90
49549;DHT22;35450;44.518;7.466;2023-07-13T19:05:34;27.60;96.20
49549;DHT22;35450;44.518;7.466;2023-07-13T19:08:41;27.50;96.20
49549;DHT22;35450;44.518;7.466;2023-07-13T19:11:45;27.50;96.20
49549;DHT22;35450;44.518;7.466;2023-07-13T19:14:50;27.40;96.30
49549;DHT22;35450;44.518;7.466;2023-07-13T19:17:54;27.30;96.60
49549;DHT22;35450;44.518;7.466;2023-07-13T19:20:59;27.20;96.60
49549;DHT22;35450;44.518;7.466;2023-07-13T19:24:05;27.20;96.80
49549;DHT22;35450;44.518;7.466;2023-07-13T19:27:12;27.10;96.90
49549;DHT22;35450;44.518;7.466;2023-07-13T19:30:18;27.00;97.00
49549;DHT22;35450;44.518;7.466;2023-07-13T19:33:22;27.10;96.90
49549;DHT22;35450;44.518;7.466;2023-07-13T19:36:27;27.10;96.80
49549;DHT22;35450;44.518;7.466;2023-07-13T19:39:35;27.00;96.80
49549;DHT22;35450;44.518;7.466;2023-07-13T19:42:42;26.90;96.90
49549;DHT22;35450;44.518;7.466;2023-07-13T19:45:46;26.90;96.70
49549;DHT22;35450;44.518;7.466;2023-07-13T19:48:51;26.80;97.00
49549;DHT22;35450;44.518;7.466;2023-07-13T19:51:55;26.90;97.10
49549;DHT22;35450;44.518;7.466;2023-07-13T19:54:59;26.80;96.90
49549;DHT22;35450;44.518;7.466;2023-07-13T19:58:04;26.80;96.80
49549;DHT22;35450;44.518;7.466;2023-07-13T20:01:10;26.90;96.80
49549;DHT22;35450;44.518;7.466;2023-07-13T20:04:15;26.90;96.90